Time;durP1;ratioP1;P1;durP2;ratioP2;P2;SDS_P1;SDS_P2;PMS_P1;PMS_P2;Temp;Humidity;BMP_temperature;BMP_pressure;BME280_temperature;BME280_humidity;BME280_pressure;Samples;Min_cycle;Max_cycle;Signal;HPM_P1;HPM_P2
2023/10/05 00:01:45;;;;;;;10.82;3.05;;;13.40;99.90;;;;;;7299253;32;20199;-54
2023/10/05 00:05:47;;;;;;;13.93;3.35;;;13.40;99.90;;;;;;7296444;32;20194;-55
2023/10/05 00:09:50;;;;;;;9.63;3.15;;;13.40;99.90;;;;;;7296702;32;20586;-55
2023/10/05 00:13:54;;;;;;;11.57;3.03;;;13.40;99.90;;;;;;7301648;32;20108;-56
2023/10/05 00:17:55;;;;;;;11.68;3.15;;;13.40;99.90;;;;;;7299822;32;20733;-55
2023/10/05 00:21:57;;;;;;;11.52;2.97;;;13.40;99.90;;;;;;7300831;32;20195;-55
2023/10/05 00:25:59;;;;;;;10.98;2.70;;;13.40;99.90;;;;;;7302289;32;20591;-55
2023/10/05 00:30:01;;;;;;;9.43;2.70;;;13.40;99.90;;;;;;7302181;32;20546;-56
2023/10/05 00:34:02;;;;;;;9.23;2.62;;;13.40;99.90;;;;;;7301001;32;20544;-56
2023/10/05 00:38:11;;;;;;;7.28;2.67;;;13.40;99.90;;;;;;7302368;32;20255;-55
2023/10/05 00:42:15;;;;;;;8.98;2.62;;;13.40;99.90;;;;;;7298054;32;20198;-55
2023/10/05 00:46:19;;;;;;;8.90;2.87;;;13.30;99.90;;;;;;7297658;32;20222;-55
2023/10/05 00:50:21;;;;;;;10.65;2.83;;;13.20;99.90;;;;;;7297647;32;20648;-55
2023/10/05 00:54:31;;;;;;;7.60;2.90;;;13.30;99.90;;;;;;7302717;32;20822;-55
2023/10/05 00:58:37;;;;;;;24.23;3.33;;;13.30;99.90;;;;;;7293395;32;20124;-55
2023/10/05 01:02:44;;;;;;;8.73;3.10;;;13.20;99.90;;;;;;7295281;32;20104;-55
2023/10/05 01:06:56;;;;;;;;;;;13.20;99.90;;;;;;7302853;32;20340;-55
2023/10/05 01:11:01;;;;;;;11.12;2.35;;;13.30;99.90;;;;;;7295338;32;20011;-55
2023/10/05 01:15:06;;;;;;;13.50;2.97;;;13.20;99.90;;;;;;7292960;32;20096;-55
2023/10/05 01:19:08;;;;;;;9.38;2.90;;;13.20;99.90;;;;;;7295537;32;20173;-55
2023/10/05 01:23:10;;;;;;;9.70;2.50;;;13.20;99.90;;;;;;7301075;32;20099;-55
2023/10/05 01:27:12;;;;;;;13.27;3.15;;;13.20;99.90;;;;;;7295754;32;20120;-55
2023/10/05 01:31:17;;;;;;;11.65;2.78;;;13.30;99.90;;;;;;7296629;32;20461;-55
2023/10/05 01:35:20;;;;;;;7.57;2.40;;;13.30;99.90;;;;;;7296461;32;20238;-55
2023/10/05 01:39:22;;;;;;;7.50;2.42;;;13.20;99.90;;;;;;7298341;32;21251;-55
2023/10/05 01:43:29;;;;;;;8.07;2.58;;;13.20;99.90;;;;;;7300824;32;20103;-56
2023/10/05 01:47:31;;;;;;;9.85;2.90;;;13.10;99.90;;;;;;7294753;32;20522;-56
2023/10/05 01:51:33;;;;;;;12.02;2.67;;;13.10;99.90;;;;;;7294358;32;20780;-55
2023/10/05 01:55:36;;;;;;;6.87;2.17;;;13.10;99.90;;;;;;7296046;32;20118;-55
2023/10/05 01:59:39;;;;;;;8.57;2.35;;;13.10;99.90;;;;;;7298575;32;20581;-56
2023/10/05 02:03:41;;;;;;;8.65;2.78;;;13.10;99.90;;;;;;7298013;32;20161;-55
2023/10/05 02:07:44;;;;;;;10.35;3.00;;;13.00;99.90;;;;;;7295665;32;20124;-55
2023/10/05 02:11:47;;;;;;;8.20;2.70;;;13.10;99.90;;;;;;7296592;32;20334;-54
2023/10/05 02:15:54;;;;;;;13.62;3.22;;;13.00;99.90;;;;;;7297142;32;20232;-56
2023/10/05 02:19:56;;;;;;;11.35;2.37;;;13.10;99.90;;;;;;7290563;32;20274;-55
2023/10/05 02:24:03;;;;;;;9.20;2.67;;;13.10;99.90;;;;;;7295340;32;20107;-54
2023/10/05 02:28:08;;;;;;;7.70;2.20;;;13.10;99.90;;;;;;7300822;32;20119;-54
2023/10/05 02:32:14;;;;;;;8.52;2.70;;;13.10;99.90;;;;;;7299422;32;20112;-56
2023/10/05 02:36:21;;;;;;;;;;;13.10;99.90;;;;;;7298635;32;20424;-55
2023/10/05 02:40:27;;;;;;;8.35;2.62;;;13.10;99.90;;;;;;7296527;32;20022;-55
2023/10/05 02:44:30;;;;;;;10.45;2.92;;;13.10;99.90;;;;;;7300212;32;20123;-54
2023/10/05 02:48:33;;;;;;;7.50;2.53;;;13.10;99.90;;;;;;7295216;32;20108;-55
2023/10/05 02:52:36;;;;;;;8.45;2.40;;;13.10;99.90;;;;;;7300380;32;20150;-57
2023/10/05 02:56:41;;;;;;;7.25;2.30;;;13.10;99.90;;;;;;7292857;32;20105;-56
2023/10/05 03:00:44;;;;;;;8.68;2.62;;;13.00;99.90;;;;;;7302100;32;20544;-55
2023/10/05 03:04:57;;;;;;;9.45;3.12;;;13.00;99.90;;;;;;7306201;32;20195;-56
2023/10/05 03:09:06;;;;;;;6.15;2.15;;;13.00;99.90;;;;;;7304025;32;20179;-55
2023/10/05 03:13:11;;;;;;;6.75;2.33;;;13.00;99.90;;;;;;7303251;32;20124;-57
2023/10/05 03:17:18;;;;;;;6.45;2.08;;;13.00;99.90;;;;;;7305194;32;20104;-55
2023/10/05 03:21:21;;;;;;;12.57;2.20;;;13.10;99.90;;;;;;7304917;32;20546;-56
2023/10/05 03:25:23;;;;;;;9.68;2.42;;;13.00;99.90;;;;;;7301219;32;20183;-55
2023/10/05 03:29:25;;;;;;;9.18;2.30;;;13.00;99.90;;;;;;7298968;32;20112;-55
2023/10/05 03:33:27;;;;;;;10.23;2.47;;;12.90;99.90;;;;;;7301279;32;20222;-55
2023/10/05 03:37:31;;;;;;;6.60;1.85;;;12.80;99.90;;;;;;7304971;32;20156;-56
2023/10/05 03:41:34;;;;;;;8.27;2.12;;;12.80;99.90;;;;;;7300028;32;20339;-56
2023/10/05 03:45:38;;;;;;;7.82;1.90;;;12.80;99.90;;;;;;7297342;32;20556;-56
2023/10/05 03:49:56;;;;;;;7.68;2.05;;;12.60;99.90;;;;;;7304060;32;20485;-56
2023/10/05 03:53:58;;;;;;;11.38;2.22;;;12.70;99.90;;;;;;7302257;32;20474;-56
2023/10/05 03:58:01;;;;;;;9.65;2.10;;;12.60;99.90;;;;;;7302932;32;20231;-56
2023/10/05 04:02:06;;;;;;;7.12;2.40;;;12.60;99.90;;;;;;7298305;32;20263;-55
2023/10/05 04:06:26;;;;;;;9.48;2.17;;;12.60;99.90;;;;;;7289195;32;20116;-55
2023/10/05 04:10:46;;;;;;;9.65;2.10;;;12.50;99.90;;;;;;7301556;32;20127;-56
2023/10/05 04:14:48;;;;;;;5.25;1.60;;;12.50;99.90;;;;;;7301484;32;20496;-55
2023/10/05 04:18:50;;;;;;;6.32;2.70;;;12.50;99.90;;;;;;7298639;32;20707;-55
2023/10/05 04:22:51;;;;;;;7.95;1.92;;;12.50;99.90;;;;;;7301991;32;20522;-55
2023/10/05 04:26:53;;;;;;;8.45;2.00;;;12.50;99.90;;;;;;7298752;32;20120;-55
2023/10/05 04:30:57;;;;;;;8.40;2.08;;;12.50;99.90;;;;;;7299272;32;20120;-55
2023/10/05 04:35:01;;;;;;;8.25;2.37;;;12.60;99.90;;;;;;7296720;32;20104;-56
2023/10/05 04:39:04;;;;;;;12.23;2.40;;;12.60;99.90;;;;;;7304040;32;20112;-55
2023/10/05 04:43:11;;;;;;;9.07;2.17;;;12.80;99.90;;;;;;7301419;32;20112;-55
2023/10/05 04:47:13;;;;;;;8.93;2.15;;;12.60;99.90;;;;;;7299130;32;20122;-55
2023/10/05 04:51:15;;;;;;;7.60;2.10;;;12.60;99.90;;;;;;7296975;32;20104;-55
2023/10/05 04:55:22;;;;;;;4.20;1.70;;;12.60;99.90;;;;;;7297590;32;20695;-55
2023/10/05 05:03:56;;;;;;;8.50;2.00;;;12.60;99.90;;;;;;7295431;32;20462;-55
2023/10/05 05:07:58;;;;;;;8.75;1.73;;;12.60;99.90;;;;;;7293757;32;20206;-57
2023/10/05 05:12:04;;;;;;;7.95;2.10;;;12.50;99.90;;;;;;7282256;32;20127;-56
2023/10/05 05:16:07;;;;;;;10.07;2.90;;;12.50;99.90;;;;;;7293707;32;20187;-55
2023/10/05 05:20:14;;;;;;;10.20;2.40;;;12.40;99.90;;;;;;7287997;32;20136;-56
2023/10/05 05:24:17;;;;;;;10.15;2.28;;;12.40;99.90;;;;;;7300785;32;20179;-55
2023/10/05 05:28:19;;;;;;;8.93;2.47;;;12.40;99.90;;;;;;7299384;32;20217;-56
2023/10/05 05:32:22;;;;;;;6.55;2.05;;;12.40;99.90;;;;;;7300105;32;20140;-55
2023/10/05 05:36:25;;;;;;;8.85;2.10;;;12.50;99.90;;;;;;7295391;32;20646;-55
2023/10/05 05:40:29;;;;;;;6.80;1.90;;;12.50;99.90;;;;;;7299581;32;20126;-54
2023/10/05 05:44:30;;;;;;;14.20;2.30;;;12.40;99.90;;;;;;7299232;32;20441;-57
2023/10/05 05:48:32;;;;;;;7.40;2.25;;;12.50;99.90;;;;;;7298036;32;20093;-56
2023/10/05 05:52:35;;;;;;;9.40;2.47;;;12.50;99.90;;;;;;7294262;32;20183;-56
2023/10/05 05:56:37;;;;;;;12.00;4.43;;;12.50;99.90;;;;;;7294529;32;20104;-56
2023/10/05 06:00:38;;;;;;;7.22;2.10;;;12.50;99.90;;;;;;7299648;32;20119;-56
2023/10/05 06:04:41;;;;;;;11.30;2.33;;;12.50;99.90;;;;;;7293370;32;20500;-57
2023/10/05 06:08:44;;;;;;;10.88;3.25;;;12.50;99.90;;;;;;7289395;32;20134;-56
2023/10/05 06:12:50;;;;;;;7.57;2.42;;;12.50;99.90;;;;;;7297803;32;20096;-56
2023/10/05 06:16:53;;;;;;;9.10;2.97;;;12.50;99.90;;;;;;7294645;32;20253;-56
2023/10/05 06:20:54;;;;;;;9.35;2.42;;;12.60;99.90;;;;;;7296341;32;20121;-57
2023/10/05 06:24:57;;;;;;;9.55;2.17;;;12.70;99.90;;;;;;7294051;32;20149;-56
2023/10/05 06:28:59;;;;;;;7.78;2.78;;;12.70;99.90;;;;;;7310321;32;20176;-56
2023/10/05 06:33:01;;;;;;;9.20;2.10;;;12.80;99.90;;;;;;7297714;32;20180;-57
2023/10/05 06:37:04;;;;;;;11.50;2.80;;;12.90;99.90;;;;;;7295525;32;20103;-57
2023/10/05 06:41:05;;;;;;;7.85;2.20;;;13.00;99.90;;;;;;7298807;32;20109;-57
2023/10/05 06:45:11;;;;;;;11.98;2.42;;;13.00;99.90;;;;;;7297099;32;20331;-57
2023/10/05 06:49:13;;;;;;;7.68;2.70;;;13.10;99.90;;;;;;7290750;32;20139;-57
2023/10/05 06:53:15;;;;;;;10.18;2.53;;;13.10;99.90;;;;;;7298943;32;20103;-57
2023/10/05 06:57:17;;;;;;;10.20;3.03;;;13.20;99.90;;;;;;7298574;32;20477;-57
2023/10/05 07:01:22;;;;;;;7.30;2.17;;;13.20;99.90;;;;;;7292419;32;20123;-55
2023/10/05 07:05:24;;;;;;;8.88;2.60;;;13.30;99.90;;;;;;7299418;32;20226;-57
2023/10/05 07:09:26;;;;;;;5.68;2.05;;;13.40;99.90;;;;;;7295634;32;20151;-56
2023/10/05 07:13:28;;;;;;;10.05;2.00;;;13.50;99.90;;;;;;7298684;32;20668;-57
2023/10/05 07:17:31;;;;;;;11.73;2.08;;;13.50;99.90;;;;;;7293364;32;21732;-57
2023/10/05 07:21:34;;;;;;;10.82;2.97;;;13.50;99.90;;;;;;7294961;32;20131;-56
2023/10/05 07:25:37;;;;;;;9.07;2.35;;;13.50;99.90;;;;;;7291525;32;20225;-56
2023/10/05 07:29:44;;;;;;;6.30;1.90;;;13.60;99.90;;;;;;7291788;32;20246;-57
2023/10/05 07:33:45;;;;;;;;;;;13.70;99.90;;;;;;7296024;32;20237;-56
2023/10/05 07:37:47;;;;;;;11.40;2.03;;;13.70;99.90;;;;;;7294499;32;20110;-56
2023/10/05 07:41:50;;;;;;;9.85;2.40;;;13.90;99.90;;;;;;7301932;32;20104;-56
2023/10/05 07:45:52;;;;;;;9.65;2.28;;;13.90;99.90;;;;;;7302325;32;20199;-56
2023/10/05 07:49:55;;;;;;;5.30;1.95;;;13.80;99.90;;;;;;7303676;32;20097;-56
2023/10/05 07:53:59;;;;;;;7.55;1.90;;;13.90;99.90;;;;;;7298308;32;20197;-56
2023/10/05 07:58:02;;;;;;;10.23;2.37;;;14.00;99.90;;;;;;7299604;32;20123;-57
2023/10/05 08:02:04;;;;;;;8.88;2.37;;;14.00;99.90;;;;;;7299065;32;20217;-57
2023/10/05 08:06:09;;;;;;;8.80;2.35;;;14.10;99.90;;;;;;7296838;32;20128;-57
2023/10/05 08:10:19;;;;;;;9.15;2.58;;;14.20;99.90;;;;;;7300356;32;20181;-57
2023/10/05 08:14:21;;;;;;;10.73;2.75;;;14.30;99.90;;;;;;7300212;32;20245;-57
2023/10/05 08:18:23;;;;;;;13.90;2.25;;;14.30;99.90;;;;;;7297114;32;20131;-56
2023/10/05 08:22:24;;;;;;;9.05;2.47;;;14.40;99.90;;;;;;7297280;32;20450;-56
2023/10/05 08:26:28;;;;;;;10.00;2.55;;;14.40;99.90;;;;;;7300581;32;20177;-55
2023/10/05 08:30:37;;;;;;;10.27;2.42;;;14.60;99.90;;;;;;7297092;32;20130;-57
2023/10/05 08:34:44;;;;;;;12.27;2.67;;;14.70;99.90;;;;;;7291546;32;20224;-57
2023/10/05 08:38:48;;;;;;;8.60;1.92;;;14.90;99.90;;;;;;7299863;32;20852;-56
2023/10/05 08:42:54;;;;;;;7.22;2.10;;;14.80;99.90;;;;;;7294782;32;20181;-57
2023/10/05 08:46:56;;;;;;;8.65;2.47;;;15.00;99.90;;;;;;7296341;32;20116;-57
2023/10/05 08:55:13;;;;;;;10.68;2.53;;;15.50;99.90;;;;;;7292600;32;20145;-56
2023/10/05 08:59:15;;;;;;;10.30;2.35;;;15.50;99.90;;;;;;7302107;32;20553;-57
2023/10/05 09:03:38;;;;;;;10.20;2.37;;;15.60;99.90;;;;;;7292310;32;20316;-57
2023/10/05 09:07:38;;;;;;;8.85;2.53;;;15.70;99.90;;;;;;7293079;32;20537;-56
2023/10/05 09:11:41;;;;;;;10.23;2.15;;;15.70;99.90;;;;;;7301786;32;20126;-57
2023/10/05 09:15:57;;;;;;;7.82;2.05;;;15.70;99.90;;;;;;7292038;32;20220;-56
2023/10/05 09:20:21;;;;;;;9.27;1.85;;;15.70;99.90;;;;;;7293026;32;20208;-56
2023/10/05 09:24:24;;;;;;;7.90;2.12;;;15.70;99.90;;;;;;7295475;32;20171;-56
2023/10/05 09:28:33;;;;;;;12.93;2.35;;;15.70;99.90;;;;;;7296460;32;20119;-56
2023/10/05 09:32:36;;;;;;;6.40;2.05;;;15.70;99.90;;;;;;7292493;32;20218;-56
2023/10/05 09:36:39;;;;;;;7.75;1.77;;;15.90;99.90;;;;;;7292789;32;20341;-57
2023/10/05 09:40:41;;;;;;;9.27;1.77;;;16.10;99.90;;;;;;7297560;32;20178;-57
2023/10/05 09:44:50;;;;;;;6.93;2.05;;;16.20;99.90;;;;;;7295304;32;20473;-57
2023/10/05 09:48:53;;;;;;;12.77;1.83;;;16.30;99.90;;;;;;7295631;32;20177;-57
2023/10/05 09:52:59;;;;;;;6.28;1.80;;;16.40;99.90;;;;;;7292370;32;20119;-56
2023/10/05 09:57:10;;;;;;;6.67;1.87;;;16.40;99.90;;;;;;7295460;32;20131;-58
2023/10/05 10:01:20;;;;;;;6.90;1.85;;;16.40;99.90;;;;;;7293995;32;20245;-56
2023/10/05 10:05:29;;;;;;;6.07;1.50;;;16.50;99.90;;;;;;7293680;32;20244;-56
2023/10/05 10:09:32;;;;;;;6.37;1.80;;;16.30;99.90;;;;;;7284155;32;20250;-56
2023/10/05 10:13:38;;;;;;;6.32;1.40;;;16.30;99.90;;;;;;7297020;32;20894;-56
2023/10/05 10:17:53;;;;;;;;;;;16.30;99.90;;;;;;7296779;32;20173;-56
2023/10/05 10:22:11;;;;;;;5.90;1.40;;;16.30;99.90;;;;;;7293179;32;20046;-56
2023/10/05 10:26:24;;;;;;;7.22;1.60;;;16.20;99.90;;;;;;7291639;32;20537;-58
2023/10/05 10:30:26;;;;;;;5.12;1.45;;;16.10;99.90;;;;;;7299340;32;20115;-57
2023/10/05 10:34:49;;;;;;;6.40;1.60;;;16.10;99.90;;;;;;7292633;32;20180;-57
2023/10/05 10:38:51;;;;;;;10.57;1.73;;;16.20;99.90;;;;;;7298063;32;20171;-56
2023/10/05 10:47:12;;;;;;;7.85;1.58;;;16.30;99.90;;;;;;7309992;32;20214;-57
2023/10/05 10:51:14;;;;;;;10.77;1.77;;;16.30;99.90;;;;;;7298969;32;20169;-57
2023/10/05 10:55:19;;;;;;;6.50;1.80;;;16.40;99.90;;;;;;7296617;32;20136;-56
2023/10/05 10:59:26;;;;;;;5.45;1.75;;;16.40;99.90;;;;;;7299910;32;20148;-56
2023/10/05 11:03:30;;;;;;;10.55;1.70;;;16.50;99.90;;;;;;7298098;32;20475;-57
2023/10/05 11:07:34;;;;;;;7.03;1.95;;;16.50;99.90;;;;;;7296007;32;20127;-57
2023/10/05 11:11:37;;;;;;;6.43;1.55;;;16.60;99.90;;;;;;7302653;32;20234;-56
2023/10/05 11:15:59;;;;;;;3.65;1.80;;;16.60;99.90;;;;;;7297204;32;20200;-57
2023/10/05 11:20:12;;;;;;;5.93;1.67;;;16.60;99.90;;;;;;7303653;32;20108;-57
2023/10/05 11:24:18;;;;;;;6.57;1.60;;;16.80;99.90;;;;;;7300158;32;20112;-57
2023/10/05 11:28:25;;;;;;;7.75;1.58;;;16.80;99.90;;;;;;7299063;32;20253;-58
2023/10/05 11:32:28;;;;;;;10.55;2.30;;;17.00;99.90;;;;;;7293757;32;20115;-56
2023/10/05 11:36:52;;;;;;;4.95;1.50;;;17.10;99.90;;;;;;7301009;32;20226;-58
2023/10/05 11:40:56;;;;;;;5.18;1.50;;;17.00;99.90;;;;;;7302500;32;20134;-57
2023/10/05 11:44:59;;;;;;;9.18;2.10;;;17.00;99.90;;;;;;7299689;32;20305;-56
2023/10/05 11:49:10;;;;;;;10.80;1.77;;;17.00;99.90;;;;;;7303035;32;20108;-57
2023/10/05 11:53:12;;;;;;;10.88;1.98;;;17.00;99.90;;;;;;7297698;32;20142;-56
2023/10/05 11:57:16;;;;;;;7.87;1.70;;;17.10;99.90;;;;;;7300301;32;20116;-56
2023/10/05 12:01:19;;;;;;;4.50;1.77;;;17.20;99.90;;;;;;7297250;32;20773;-56
2023/10/05 12:05:25;;;;;;;4.97;1.65;;;17.50;99.90;;;;;;7302699;32;20686;-56
2023/10/05 12:09:43;;;;;;;6.95;1.95;;;17.50;99.90;;;;;;7301839;32;20107;-55
2023/10/05 12:13:44;;;;;;;;;;;17.20;99.90;;;;;;7292702;32;20131;-56
2023/10/05 12:17:46;;;;;;;9.02;1.60;;;17.00;99.90;;;;;;7298867;32;20006;-57
2023/10/05 12:21:48;;;;;;;10.05;2.00;;;16.90;99.90;;;;;;7295095;32;20158;-55
2023/10/05 12:25:53;;;;;;;6.68;1.52;;;17.10;99.90;;;;;;7298189;32;20219;-57
2023/10/05 12:29:55;;;;;;;9.27;1.80;;;17.40;99.90;;;;;;7300970;32;20204;-56
2023/10/05 12:33:58;;;;;;;6.93;2.17;;;17.30;99.90;;;;;;7300738;32;20119;-56
2023/10/05 12:38:00;;;;;;;6.00;1.73;;;17.40;99.90;;;;;;7300415;32;20172;-56
2023/10/05 12:42:03;;;;;;;6.80;1.83;;;17.50;99.90;;;;;;7295356;32;20165;-56
2023/10/05 12:46:10;;;;;;;4.50;1.50;;;17.50;99.90;;;;;;7302003;32;20272;-56
2023/10/05 12:50:12;;;;;;;5.35;1.73;;;17.50;99.90;;;;;;7298022;32;20514;-56
2023/10/05 12:54:29;;;;;;;6.25;1.50;;;17.50;99.90;;;;;;7300024;32;20242;-57
2023/10/05 12:58:34;;;;;;;;;;;17.60;99.90;;;;;;7299849;32;20514;-57
2023/10/05 13:02:36;;;;;;;5.93;1.30;;;17.80;99.90;;;;;;7295550;32;20015;-56
2023/10/05 13:06:39;;;;;;;5.70;1.55;;;18.00;99.90;;;;;;7302385;32;20112;-57
2023/10/05 13:10:41;;;;;;;7.43;1.80;;;18.10;99.90;;;;;;7300468;32;20195;-56
2023/10/05 13:14:45;;;;;;;4.07;1.30;;;18.00;99.90;;;;;;7300441;32;20321;-56
2023/10/05 13:18:49;;;;;;;6.53;1.70;;;18.20;99.90;;;;;;7300474;32;20111;-56
2023/10/05 13:22:53;;;;;;;6.28;1.50;;;18.20;99.90;;;;;;7302044;32;20219;-56
2023/10/05 13:26:56;;;;;;;5.12;1.40;;;18.30;99.90;;;;;;7300779;32;20594;-56
2023/10/05 13:30:58;;;;;;;4.50;1.27;;;18.30;99.90;;;;;;7293043;32;20271;-56
2023/10/05 13:35:10;;;;;;;6.15;1.75;;;18.40;99.90;;;;;;7298080;32;20566;-56
2023/10/05 13:39:14;;;;;;;8.10;1.80;;;18.30;99.90;;;;;;7301580;32;20256;-57
2023/10/05 13:43:15;;;;;;;7.82;1.30;;;18.20;99.90;;;;;;7297310;32;20430;-56
2023/10/05 13:47:18;;;;;;;9.38;1.70;;;18.10;99.90;;;;;;7299281;32;20122;-56
2023/10/05 13:51:20;;;;;;;3.85;1.55;;;17.80;99.90;;;;;;7293241;32;20126;-57
2023/10/05 13:55:23;;;;;;;7.30;1.50;;;17.60;99.90;;;;;;7300062;32;20195;-56
2023/10/05 13:59:26;;;;;;;7.25;1.48;;;17.50;99.90;;;;;;7301508;32;20209;-57
2023/10/05 14:03:29;;;;;;;9.02;1.90;;;17.60;99.90;;;;;;7296272;32;20663;-57
2023/10/05 14:07:33;;;;;;;7.75;1.70;;;17.60;99.90;;;;;;7292955;32;20211;-57
2023/10/05 14:11:38;;;;;;;10.98;1.90;;;17.60;99.90;;;;;;7300052;32;20160;-56
2023/10/05 14:15:40;;;;;;;3.22;1.40;;;17.60;99.90;;;;;;7299630;32;20259;-56
2023/10/05 14:19:42;;;;;;;8.20;1.90;;;17.50;99.90;;;;;;7298240;32;20242;-56
2023/10/05 14:23:44;;;;;;;6.85;1.48;;;17.40;99.90;;;;;;7296774;32;20108;-56
2023/10/05 14:27:46;;;;;;;6.85;1.62;;;17.50;99.90;;;;;;7298280;32;20755;-57
2023/10/05 14:31:53;;;;;;;6.25;1.75;;;17.60;99.90;;;;;;7294758;32;20112;-57
2023/10/05 14:35:57;;;;;;;4.62;1.48;;;17.60;99.90;;;;;;7297542;32;20213;-56
2023/10/05 14:39:59;;;;;;;7.12;1.73;;;17.50;99.90;;;;;;7292860;32;20104;-57
2023/10/05 14:44:04;;;;;;;7.90;1.80;;;17.50;99.90;;;;;;7298961;32;20299;-57
2023/10/05 14:48:08;;;;;;;7.15;1.77;;;17.50;99.90;;;;;;7299011;32;20101;-56
2023/10/05 14:52:11;;;;;;;5.43;1.65;;;17.50;99.90;;;;;;7302665;32;20100;-57
2023/10/05 14:56:14;;;;;;;5.07;1.33;;;17.50;99.90;;;;;;7304219;32;20181;-57
2023/10/05 15:00:16;;;;;;;6.12;1.77;;;17.50;99.90;;;;;;7299689;32;20103;-57
2023/10/05 15:04:19;;;;;;;5.10;1.60;;;17.40;99.90;;;;;;7297280;32;20186;-56
2023/10/05 15:08:21;;;;;;;7.55;2.00;;;17.30;99.90;;;;;;7304751;32;20549;-57
2023/10/05 15:12:23;;;;;;;5.20;1.80;;;17.30;99.90;;;;;;7300011;32;20646;-57
2023/10/05 15:16:27;;;;;;;8.05;1.77;;;17.10;99.90;;;;;;7302290;32;20248;-57
2023/10/05 15:20:29;;;;;;;4.87;1.77;;;17.10;99.90;;;;;;7296149;32;20116;-56
2023/10/05 15:24:31;;;;;;;5.30;1.40;;;17.10;99.90;;;;;;7291371;32;20111;-57
2023/10/05 15:28:33;;;;;;;3.58;1.17;;;17.00;99.90;;;;;;7303827;32;20135;-56
2023/10/05 15:32:36;;;;;;;6.62;1.52;;;16.80;99.90;;;;;;7298873;32;20108;-56
2023/10/05 15:36:38;;;;;;;6.43;1.27;;;16.80;99.90;;;;;;7303726;32;20142;-57
2023/10/05 15:40:39;;;;;;;6.25;1.35;;;16.80;99.90;;;;;;7302410;32;20269;-57
2023/10/05 15:44:42;;;;;;;5.97;1.40;;;16.80;99.90;;;;;;7302938;32;20338;-56
2023/10/05 15:48:43;;;;;;;7.70;1.70;;;16.90;99.90;;;;;;7298843;32;20104;-57
2023/10/05 15:52:48;;;;;;;4.60;1.62;;;16.80;99.90;;;;;;7299679;32;20807;-56
2023/10/05 15:56:50;;;;;;;2.20;1.08;;;16.80;99.90;;;;;;7291042;32;20220;-57
2023/10/05 16:00:52;;;;;;;6.35;1.33;;;16.70;99.90;;;;;;7296856;32;20145;-56
2023/10/05 16:04:54;;;;;;;6.55;1.87;;;16.70;99.90;;;;;;7302100;32;20564;-56
2023/10/05 16:08:57;;;;;;;5.07;1.40;;;16.70;99.90;;;;;;7299503;32;20286;-56
2023/10/05 16:13:00;;;;;;;3.95;1.45;;;16.70;99.90;;;;;;7295101;32;20108;-57
2023/10/05 16:17:01;;;;;;;5.12;1.45;;;16.70;99.90;;;;;;7301265;32;20215;-56
2023/10/05 16:21:07;;;;;;;5.05;1.33;;;16.80;99.90;;;;;;7301077;32;20238;-56
2023/10/05 16:25:11;;;;;;;5.75;1.65;;;16.80;99.90;;;;;;7298028;32;20108;-56
2023/10/05 16:29:15;;;;;;;6.03;1.30;;;16.80;99.90;;;;;;7300591;32;20134;-56
2023/10/05 16:33:18;;;;;;;6.72;1.42;;;16.80;99.90;;;;;;7295710;32;20144;-56
2023/10/05 16:37:20;;;;;;;5.12;1.10;;;16.70;99.90;;;;;;7298845;32;20103;-57
2023/10/05 16:41:22;;;;;;;5.65;1.37;;;16.70;99.90;;;;;;7301464;32;20231;-56
2023/10/05 16:45:24;;;;;;;6.97;1.55;;;16.50;99.90;;;;;;7293688;32;20222;-57
2023/10/05 16:49:26;;;;;;;3.95;1.50;;;16.50;99.90;;;;;;7300009;32;20116;-57
2023/10/05 16:53:28;;;;;;;5.43;1.30;;;16.40;99.90;;;;;;7300273;32;20230;-57
2023/10/05 16:57:29;;;;;;;5.50;1.55;;;16.40;99.90;;;;;;7300479;32;20126;-56
2023/10/05 17:01:31;;;;;;;4.97;2.10;;;16.30;99.90;;;;;;7302550;32;20452;-57
2023/10/05 17:05:33;;;;;;;5.78;1.30;;;16.30;99.90;;;;;;7298373;32;20108;-56
2023/10/05 17:09:35;;;;;;;4.62;1.33;;;16.20;99.90;;;;;;7300387;32;20108;-57
2023/10/05 17:13:37;;;;;;;3.90;1.50;;;16.10;99.90;;;;;;7298147;32;20239;-56
2023/10/05 17:17:39;;;;;;;5.68;1.60;;;16.10;99.90;;;;;;7300495;32;20546;-56
2023/10/05 17:21:40;;;;;;;7.62;1.80;;;15.80;99.90;;;;;;7300760;32;20116;-55
2023/10/05 17:25:43;;;;;;;5.95;1.50;;;15.70;99.90;;;;;;7295405;32;20222;-55
2023/10/05 17:29:45;;;;;;;4.05;1.62;;;15.70;99.90;;;;;;7299458;32;20120;-55
2023/10/05 17:33:47;;;;;;;9.27;2.03;;;15.50;99.90;;;;;;7298647;32;20162;-57
2023/10/05 17:37:50;;;;;;;6.18;1.90;;;15.40;99.90;;;;;;7297809;32;20585;-57
2023/10/05 17:41:52;;;;;;;3.47;1.45;;;15.30;99.90;;;;;;7301291;32;20219;-56
2023/10/05 17:45:54;;;;;;;6.72;1.60;;;15.20;99.90;;;;;;7296140;32;20431;-56
2023/10/05 17:49:56;;;;;;;6.75;1.70;;;15.20;99.90;;;;;;7298281;32;20133;-56
2023/10/05 17:53:58;;;;;;;6.85;1.80;;;15.10;99.90;;;;;;7299536;32;20104;-56
2023/10/05 17:58:00;;;;;;;5.07;2.12;;;15.10;99.90;;;;;;7298235;32;20702;-57
2023/10/05 18:02:02;;;;;;;4.82;1.75;;;15.00;99.90;;;;;;7293744;32;20560;-55
2023/10/05 18:06:06;;;;;;;6.70;1.80;;;14.80;99.90;;;;;;7299223;32;20139;-55
2023/10/05 18:10:08;;;;;;;7.00;1.75;;;14.70;99.90;;;;;;7297330;32;20191;-56
2023/10/05 18:14:14;;;;;;;7.68;1.83;;;14.60;99.90;;;;;;7294966;32;20176;-56
2023/10/05 18:18:16;;;;;;;6.75;2.15;;;14.60;99.90;;;;;;7299317;32;20108;-55
2023/10/05 18:22:21;;;;;;;7.80;2.08;;;14.50;99.90;;;;;;7297894;32;20143;-55
2023/10/05 18:26:23;;;;;;;6.97;1.70;;;14.30;99.90;;;;;;7296998;32;20132;-55
2023/10/05 18:30:25;;;;;;;5.53;1.95;;;14.20;99.90;;;;;;7291813;32;20214;-55
2023/10/05 18:34:26;;;;;;;5.82;1.92;;;14.20;99.90;;;;;;7294455;32;20100;-55
2023/10/05 18:38:28;;;;;;;6.12;2.00;;;14.10;99.90;;;;;;7300080;32;20329;-55
2023/10/05 18:42:30;;;;;;;9.40;2.20;;;14.10;99.90;;;;;;7299841;32;20270;-56
2023/10/05 18:46:32;;;;;;;8.88;2.20;;;13.90;99.90;;;;;;7294957;32;20198;-56
2023/10/05 18:50:35;;;;;;;4.80;2.33;;;13.90;99.90;;;;;;7294799;32;20138;-56
2023/10/05 18:54:37;;;;;;;7.25;2.10;;;13.70;99.90;;;;;;7299136;32;20185;-56
2023/10/05 18:58:39;;;;;;;7.10;2.30;;;13.60;99.90;;;;;;7298173;32;20127;-55
2023/10/05 19:02:41;;;;;;;5.87;2.08;;;13.30;99.90;;;;;;7294296;32;20549;-56
2023/10/05 19:06:43;;;;;;;5.55;1.85;;;13.20;99.90;;;;;;7300496;32;20119;-56
2023/10/05 19:10:45;;;;;;;7.05;2.00;;;13.10;99.90;;;;;;7295971;32;20214;-56
2023/10/05 19:14:47;;;;;;;8.13;2.50;;;13.00;99.90;;;;;;7295636;32;20265;-56
2023/10/05 19:18:48;;;;;;;6.03;2.25;;;12.80;99.90;;;;;;7291938;32;20169;-56
2023/10/05 19:22:50;;;;;;;4.97;1.95;;;12.60;99.90;;;;;;7292588;32;20157;-56
2023/10/05 19:26:52;;;;;;;6.90;2.30;;;12.50;99.90;;;;;;7293408;32;20271;-57
2023/10/05 19:30:59;;;;;;;4.75;2.22;;;12.40;99.90;;;;;;7299125;32;20112;-56
2023/10/05 19:35:01;;;;;;;4.55;2.12;;;12.30;99.90;;;;;;7298667;32;20698;-55
2023/10/05 19:39:09;;;;;;;4.70;2.17;;;12.20;99.90;;;;;;7298541;32;20124;-57
2023/10/05 19:43:11;;;;;;;7.37;2.05;;;12.10;99.90;;;;;;7298169;32;20168;-56
2023/10/05 19:47:17;;;;;;;4.78;1.80;;;12.00;99.90;;;;;;7296243;32;20156;-57
2023/10/05 19:51:20;;;;;;;6.87;1.73;;;11.90;99.90;;;;;;7299810;32;20540;-57
2023/10/05 19:55:21;;;;;;;5.47;1.98;;;11.80;99.90;;;;;;7302255;32;20550;-57
2023/10/05 19:59:23;;;;;;;8.00;2.28;;;11.70;99.90;;;;;;7304076;32;20143;-57
2023/10/05 20:03:25;;;;;;;7.65;2.05;;;11.60;99.90;;;;;;7299512;32;20108;-57
2023/10/05 20:07:27;;;;;;;5.50;1.92;;;11.60;99.90;;;;;;7298495;32;21910;-56
2023/10/05 20:11:29;;;;;;;4.15;1.62;;;11.40;99.90;;;;;;7299084;32;20108;-58
2023/10/05 20:15:41;;;;;;;3.95;2.20;;;11.40;99.90;;;;;;7296421;32;20208;-57
2023/10/05 20:19:43;;;;;;;3.60;1.70;;;11.40;99.90;;;;;;7302530;32;20151;-57
2023/10/05 20:23:45;;;;;;;5.03;1.77;;;11.30;99.90;;;;;;7294920;32;20214;-56
2023/10/05 20:27:47;;;;;;;4.45;1.83;;;11.20;99.90;;;;;;7297901;32;20124;-56
2023/10/05 20:31:48;;;;;;;5.03;2.10;;;11.10;99.90;;;;;;7297653;32;20229;-56
2023/10/05 20:36:02;;;;;;;8.38;2.22;;;11.00;99.90;;;;;;7300175;32;20130;-56
2023/10/05 20:40:08;;;;;;;5.10;1.90;;;11.10;99.90;;;;;;7303134;32;20940;-56
2023/10/05 20:44:10;;;;;;;6.53;2.22;;;11.00;99.90;;;;;;7295650;32;20159;-57
2023/10/05 20:48:12;;;;;;;5.57;1.98;;;10.90;99.90;;;;;;7295598;32;20442;-56
2023/10/05 20:52:14;;;;;;;5.62;1.85;;;10.80;99.90;;;;;;7303605;32;20538;-55
2023/10/05 20:56:16;;;;;;;5.53;1.77;;;10.70;99.90;;;;;;7295614;32;20195;-56
2023/10/05 21:00:18;;;;;;;4.78;1.60;;;10.70;99.90;;;;;;7298219;32;20731;-56
2023/10/05 21:04:20;;;;;;;5.70;1.80;;;10.70;99.90;;;;;;7297066;32;20122;-56
2023/10/05 21:08:21;;;;;;;3.33;1.67;;;10.60;99.90;;;;;;7300254;32;20120;-57
2023/10/05 21:12:23;;;;;;;4.50;1.98;;;10.60;99.90;;;;;;7300681;32;20592;-56
2023/10/05 21:16:25;;;;;;;7.03;2.10;;;10.50;99.90;;;;;;7301309;32;20108;-57
2023/10/05 21:20:27;;;;;;;4.90;1.95;;;10.50;99.90;;;;;;7298028;32;20820;-56